createdAt,value
2019-04-25T00:04:48.575Z,64.50
2019-04-25T00:09:54.316Z,65.90
2019-04-25T00:14:58.585Z,67.50
2019-04-25T00:20:05.368Z,66.50
2019-04-25T00:25:28.061Z,66.60
2019-04-25T00:30:32.593Z,67.40
2019-04-25T00:35:36.378Z,64.90
2019-04-25T00:40:39.699Z,66.50
2019-04-25T00:45:44.339Z,67.30
2019-04-25T00:50:48.049Z,67.30
2019-04-25T00:55:52.850Z,68.40
2019-04-25T01:01:21.817Z,68.90
2019-04-25T01:06:25.798Z,69.30
2019-04-25T01:11:30.991Z,69.20
2019-04-25T01:16:34.802Z,69.20
2019-04-25T01:21:38.940Z,69.90
2019-04-25T01:26:43.886Z,69.40
2019-04-25T01:31:48.008Z,69.80
2019-04-25T01:42:34.106Z,69.60
2019-04-25T01:47:38.160Z,70.20
2019-04-25T01:52:43.339Z,70.30
2019-04-25T01:57:49.324Z,70.60
2019-04-25T02:02:54.901Z,70.20
2019-04-25T02:07:59.165Z,70.70
2019-04-25T02:13:05.820Z,70.70
2019-04-25T02:18:09.741Z,71.00
2019-04-25T02:23:14.154Z,70.40
2019-04-25T02:28:18.283Z,71.00
2019-04-25T02:38:27.619Z,70.30
2019-04-25T02:43:30.958Z,71.10
2019-04-25T02:48:55.006Z,71.00
2019-04-25T02:53:59.506Z,71.60
2019-04-25T02:59:06.488Z,71.80
2019-04-25T03:04:11.158Z,72.10
2019-04-25T03:09:15.356Z,71.40
2019-04-25T03:14:21.442Z,72.00
2019-04-25T03:19:44.033Z,71.80
2019-04-25T03:24:48.030Z,72.60
2019-04-25T03:29:51.375Z,72.30
2019-04-25T03:34:56.322Z,72.10
2019-04-25T03:40:02.048Z,72.40
2019-04-25T03:45:07.111Z,72.30
2019-04-25T03:50:10.740Z,72.60
2019-04-25T03:55:14.541Z,72.10
2019-04-25T04:00:18.475Z,71.50
2019-04-25T04:05:23.388Z,71.00
2019-04-25T04:10:26.809Z,69.90
2019-04-25T04:15:30.936Z,69.90
2019-04-25T04:21:09.013Z,69.20
2019-04-25T04:26:14.461Z,68.70
2019-04-25T04:31:18.675Z,68.40
2019-04-25T04:36:23.756Z,68.70
2019-04-25T04:41:27.226Z,67.80
2019-04-25T04:46:31.687Z,65.90
2019-04-25T04:51:35.344Z,66.70
2019-04-25T04:56:38.751Z,65.40
2019-04-25T05:02:08.646Z,65.80
2019-04-25T05:07:33.859Z,65.30
2019-04-25T05:12:37.376Z,64.70
2019-04-25T05:17:40.729Z,64.20
2019-04-25T05:22:44.631Z,63.60
2019-04-25T05:28:00.137Z,62.90
2019-04-25T05:32:54.342Z,62.60
2019-04-25T05:37:58.667Z,59.60
2019-04-25T05:43:11.112Z,61.20
2019-04-25T05:48:15.966Z,60.00
2019-04-25T05:53:19.997Z,60.00
2019-04-25T05:58:24.834Z,59.70
2019-04-25T06:03:29.769Z,59.10
2019-04-25T06:08:37.296Z,59.00
2019-04-25T06:13:45.163Z,58.60
2019-04-25T06:19:13.645Z,58.20
2019-04-25T06:24:37.069Z,57.90
2019-04-25T06:29:43.143Z,57.40
2019-04-25T06:34:46.853Z,57.00
2019-04-25T06:39:50.192Z,56.70
2019-04-25T06:44:59.094Z,56.20
2019-04-25T06:50:04.207Z,56.20
2019-04-25T06:55:07.783Z,56.10
2019-04-25T07:00:14.157Z,55.40
2019-04-25T07:05:26.550Z,55.20
2019-04-25T07:10:24.331Z,54.80
2019-04-25T07:15:29.498Z,54.40
2019-04-25T07:20:34.541Z,53.80
2019-04-25T07:25:43.704Z,53.60
2019-04-25T07:30:58.004Z,52.90
2019-04-25T07:36:01.434Z,52.40
2019-04-25T07:41:04.934Z,52.00
2019-04-25T07:46:09.562Z,51.30
2019-04-25T07:51:16.178Z,50.50
2019-04-25T07:56:18.196Z,49.90
2019-04-25T08:01:23.534Z,48.40
2019-04-25T08:06:29.373Z,48.60
2019-04-25T08:11:34.205Z,48.00
2019-04-25T08:16:41.352Z,45.90
2019-04-25T08:21:45.651Z,46.80
2019-04-25T08:26:49.199Z,45.50
2019-04-25T08:31:53.502Z,44.90
2019-04-25T08:36:57.283Z,45.00
2019-04-25T08:42:00.684Z,44.50
2019-04-25T08:47:04.566Z,43.30
2019-04-25T08:52:08.077Z,42.70
2019-04-25T08:57:19.506Z,42.80
2019-04-25T09:02:38.535Z,42.50
2019-04-25T09:07:44.119Z,42.50
2019-04-25T09:12:50.644Z,42.20
2019-04-25T09:17:54.672Z,41.70
2019-04-25T09:22:58.421Z,42.30
2019-04-25T09:28:04.338Z,41.90
2019-04-25T09:33:08.389Z,41.70
2019-04-25T09:38:13.316Z,41.70
2019-04-25T09:43:17.195Z,41.70
2019-04-25T09:48:46.841Z,41.20
2019-04-25T09:53:56.689Z,40.90
2019-04-25T09:59:07.287Z,40.50
2019-04-25T10:04:10.904Z,41.40
2019-04-25T10:09:15.667Z,40.20
2019-04-25T10:15:05.951Z,41.20
2019-04-25T10:20:09.851Z,40.50
2019-04-25T10:25:14.870Z,40.80
2019-04-25T10:30:21.795Z,40.60
2019-04-25T10:35:24.818Z,41.70
2019-04-25T10:40:28.639Z,41.40
2019-04-25T10:45:33.963Z,39.70
2019-04-25T10:50:41.749Z,39.80
2019-04-25T10:55:47.559Z,39.80
2019-04-25T11:00:52.919Z,39.10
2019-04-25T11:05:57.159Z,38.60
2019-04-25T11:11:01.271Z,39.40
2019-04-25T11:16:05.881Z,38.90
2019-04-25T11:21:09.375Z,37.50
2019-04-25T11:26:13.877Z,36.60
2019-04-25T11:31:24.611Z,36.60
2019-04-25T11:36:28.152Z,36.80
2019-04-25T11:41:31.708Z,36.40
2019-04-25T11:46:35.138Z,35.90
2019-04-25T11:51:38.608Z,35.90
2019-04-25T11:56:43.340Z,36.50
2019-04-25T12:01:47.639Z,36.40
2019-04-25T12:06:51.455Z,36.30
2019-04-25T12:11:55.970Z,35.60
2019-04-25T12:17:00.251Z,32.70
2019-04-25T12:22:04.089Z,35.60
2019-04-25T12:27:07.984Z,34.00
2019-04-25T12:32:11.522Z,35.10
2019-04-25T12:37:14.973Z,34.50
2019-04-25T12:42:18.545Z,32.70
2019-04-25T12:47:24.338Z,34.00
2019-04-25T12:52:28.503Z,34.00
2019-04-25T12:57:31.942Z,32.30
2019-04-25T13:02:36.526Z,33.10
2019-04-25T13:07:40.955Z,34.20
2019-04-25T13:12:44.771Z,33.60
2019-04-25T13:17:49.102Z,32.80
2019-04-25T13:22:53.287Z,33.00
2019-04-25T13:28:16.547Z,33.10
2019-04-25T13:33:36.827Z,32.70
2019-04-25T13:38:40.762Z,32.30
2019-04-25T13:43:44.353Z,32.20
2019-04-25T13:48:48.268Z,30.00
2019-04-25T13:53:52.492Z,31.60
2019-04-25T13:58:56.037Z,32.30
2019-04-25T14:04:00.035Z,32.80
2019-04-25T14:09:07.510Z,32.70
2019-04-25T14:14:11.886Z,32.90
2019-04-25T14:19:37.934Z,32.20
2019-04-25T14:24:41.816Z,31.50
2019-04-25T14:29:45.439Z,31.10
2019-04-25T14:34:49.226Z,30.00
2019-04-25T14:39:53.697Z,30.00
2019-04-25T14:44:59.197Z,25.90
2019-04-25T14:50:03.060Z,25.60
2019-04-25T14:55:32.327Z,26.20
2019-04-25T15:00:40.821Z,24.10
2019-04-25T15:05:44.332Z,23.30
2019-04-25T15:10:48.504Z,22.10
2019-04-25T15:15:54.829Z,26.30
2019-04-25T15:20:58.556Z,28.10
2019-04-25T15:26:02.077Z,29.50
2019-04-25T15:31:05.543Z,28.50
2019-04-25T15:36:20.477Z,25.50
2019-04-25T15:41:34.907Z,22.40
2019-04-25T15:46:39.967Z,21.90
2019-04-25T15:51:44.088Z,20.20
2019-04-25T15:56:47.833Z,19.90
2019-04-25T16:01:51.400Z,20.30
2019-04-25T16:06:56.988Z,20.20
2019-04-25T16:12:01.132Z,22.40
2019-04-25T16:22:07.931Z,24.40
2019-04-25T16:27:12.119Z,22.20
2019-04-25T16:32:20.898Z,21.00
2019-04-25T16:37:24.936Z,21.10
2019-04-25T16:42:28.268Z,20.90
2019-04-25T16:47:31.744Z,20.80
2019-04-25T16:52:35.847Z,20.80
2019-04-25T16:57:39.668Z,21.20
2019-04-25T17:02:43.332Z,21.60
2019-04-25T17:07:47.013Z,21.60
2019-04-25T17:12:50.405Z,22.20
2019-04-25T17:28:15.569Z,28.70
2019-04-25T17:48:54.678Z,34.80
2019-04-25T17:53:58.286Z,35.40
2019-04-25T18:04:06.771Z,38.40
2019-04-25T18:09:10.155Z,39.60
2019-04-25T18:19:36.901Z,42.40
2019-04-25T18:24:59.798Z,44.70
2019-04-25T18:30:06.185Z,46.40
2019-04-25T18:35:16.488Z,47.30
2019-04-25T18:40:46.409Z,47.00
2019-04-25T18:50:58.373Z,49.60
2019-04-25T18:56:28.598Z,50.00
2019-04-25T19:01:45.978Z,51.20
2019-04-25T19:06:56.688Z,51.50
2019-04-25T19:11:55.813Z,51.90
2019-04-25T19:22:02.894Z,52.50
2019-04-25T19:27:06.226Z,54.10
2019-04-25T19:37:14.003Z,54.40
2019-04-25T19:42:30.792Z,54.80
2019-04-25T19:47:34.390Z,55.60
2019-04-25T19:57:42.336Z,56.50
2019-04-25T20:08:05.069Z,56.60
2019-04-25T20:13:08.417Z,56.80
2019-04-25T20:18:12.727Z,57.90
2019-04-25T20:23:16.093Z,58.00
2019-04-25T20:28:19.533Z,58.30
2019-04-25T20:38:26.637Z,58.50
2019-04-25T20:43:30.083Z,58.80
2019-04-25T20:48:33.974Z,59.30
2019-04-25T20:53:37.318Z,59.70
2019-04-25T20:58:41.772Z,59.80
2019-04-25T21:03:45.433Z,59.90
2019-04-25T21:08:49.054Z,60.40
2019-04-25T21:14:12.744Z,60.60
2019-04-25T21:24:23.927Z,60.40
2019-04-25T21:29:27.298Z,60.90
2019-04-25T21:34:31.446Z,61.60
2019-04-25T21:39:44.064Z,61.60
2019-04-25T21:44:49.594Z,62.30
2019-04-25T21:49:53.253Z,63.20
2019-04-25T21:54:57.755Z,63.30
2019-04-25T22:00:06.672Z,63.30
2019-04-25T22:05:07.883Z,63.60
2019-04-25T22:10:12.092Z,63.70
2019-04-25T22:15:16.699Z,63.90
2019-04-25T22:20:20.278Z,63.50
2019-04-25T22:25:23.854Z,63.90
2019-04-25T22:35:57.661Z,64.00
2019-04-25T22:41:03.548Z,65.90
2019-04-25T22:46:07.363Z,66.90
2019-04-25T22:51:12.276Z,67.00
2019-04-25T22:56:15.960Z,67.20
2019-04-25T23:01:30.742Z,66.60
2019-04-25T23:06:34.570Z,67.10
2019-04-25T23:11:37.883Z,67.30
2019-04-25T23:21:45.724Z,67.20
2019-04-25T23:32:21.153Z,67.40
2019-04-25T23:42:30.486Z,68.80
2019-04-25T23:47:35.634Z,69.50
2019-04-25T23:52:40.682Z,69.70
2019-04-25T23:57:43.982Z,69.50
